Time;durP1;ratioP1;P1;durP2;ratioP2;P2;SDS_P1;SDS_P2;PMS_P1;PMS_P2;Temp;Humidity;BMP_temperature;BMP_pressure;BME280_temperature;BME280_humidity;BME280_pressure;Samples;Min_cycle;Max_cycle;Signal;HPM_P1;HPM_P2
2021/12/05 00:22:26;;;;;;;28.55;10.05;;;;;;;-1.62;61.17;98679.38;4971427;28;20066;-68
2021/12/05 00:24:55;;;;;;;;;;;;;;;-1.62;61.51;98677.50;4953490;28;20063;-69
2021/12/05 00:27:29;;;;;;;31.67;12.95;;;;;;;-1.64;61.48;98670.72;4970399;28;19925;-68
2021/12/05 00:40:52;;;;;;;27.70;11.88;;;;;;;-1.45;61.40;98671.53;4973760;28;20043;-69
2021/12/05 00:54:33;;;;;;;27.80;10.60;;;;;;;-1.61;61.97;98679.13;4955708;28;20046;-69
2021/12/05 01:00:01;;;;;;;42.83;14.15;;;;;;;-1.69;62.28;98673.25;4968683;28;20059;-67
2021/12/05 01:04:40;;;;;;;38.63;12.85;;;;;;;-1.52;62.14;98660.88;4968595;28;20166;-69
2021/12/05 01:09:53;;;;;;;35.83;14.10;;;;;;;-1.51;62.23;98654.47;4973183;28;20051;-69
2021/12/05 01:15:07;;;;;;;34.10;13.65;;;;;;;-1.50;62.43;98653.44;4966924;28;20065;-68
2021/12/05 01:18:00;;;;;;;37.35;13.70;;;;;;;-1.50;62.62;98649.94;4956281;28;20996;-69
2021/12/05 01:20:28;;;;;;;44.70;15.57;;;;;;;-1.43;62.57;98656.88;4976981;28;20054;-68
2021/12/05 01:23:05;;;;;;;39.30;16.17;;;;;;;-1.51;62.72;98643.75;4973266;28;20141;-68
2021/12/05 01:25:48;;;;;;;43.58;15.85;;;;;;;-1.47;62.75;98644.97;4976470;28;20158;-69
2021/12/05 01:28:28;;;;;;;41.28;16.38;;;;;;;-1.44;62.72;98652.56;4963221;28;20153;-68
2021/12/05 02:43:48;;;;;;;80.45;26.40;;;;;;;-1.34;64.88;98660.06;4949206;28;20047;-69
2021/12/05 02:46:21;;;;;;;64.60;24.67;;;;;;;-1.35;65.09;98657.59;4965314;28;20059;-69
2021/12/05 02:48:47;;;;;;;62.80;23.38;;;;;;;-1.33;65.33;98650.16;4945196;29;20435;-69
2021/12/05 02:51:19;;;;;;;65.43;25.38;;;;;;;-1.34;65.33;98653.88;4967750;28;20097;-69
2021/12/05 02:53:51;;;;;;;68.25;23.92;;;;;;;-1.29;65.35;98643.31;4956521;28;20051;-69
2021/12/05 02:56:18;;;;;;;62.65;23.95;;;;;;;-1.28;65.36;98655.69;4968557;28;20150;-69
2021/12/05 02:58:50;;;;;;;69.97;25.40;;;;;;;-1.28;65.32;98661.03;4951654;29;20059;-68
2021/12/05 03:01:27;;;;;;;68.85;24.58;;;;;;;-1.23;65.38;98663.06;4967901;28;20306;-69
2021/12/05 03:03:57;;;;;;;83.67;24.97;;;;;;;-1.29;65.69;98662.88;4978040;28;20055;-69
2021/12/05 03:06:31;;;;;;;66.70;24.00;;;;;;;-1.26;65.77;98658.94;4953616;28;20118;-69
2021/12/05 03:09:01;;;;;;;66.57;25.00;;;;;;;-1.25;65.66;98654.38;4968413;28;20066;-68
2021/12/05 03:11:29;;;;;;;63.90;24.02;;;;;;;-1.29;65.98;98657.53;4934854;29;20074;-67
2021/12/05 03:13:56;;;;;;;66.63;24.73;;;;;;;-1.30;65.86;98647.84;4951509;28;20058;-68
2021/12/05 03:16:31;;;;;;;68.70;24.57;;;;;;;-1.22;65.95;98651.28;4984388;28;20536;-69
2021/12/05 03:18:58;;;;;;;64.77;23.73;;;;;;;-1.24;65.96;98653.38;4966780;28;20063;-69
2021/12/05 03:21:24;;;;;;;68.25;24.35;;;;;;;-1.31;65.99;98643.53;4953402;28;20087;-69
2021/12/05 03:23:52;;;;;;;81.13;23.83;;;;;;;-1.17;66.02;98654.94;4954534;28;20043;-69
2021/12/05 03:26:23;;;;;;;66.20;23.20;;;;;;;-1.20;66.10;98643.81;4955198;28;20051;-68
2021/12/05 03:28:51;;;;;;;60.05;22.70;;;;;;;-1.16;66.03;98651.19;4964073;28;20051;-68
2021/12/05 03:31:18;;;;;;;62.70;22.98;;;;;;;-1.15;66.13;98652.81;4971008;28;20122;-68
2021/12/05 03:33:50;;;;;;;65.18;23.50;;;;;;;-1.18;66.44;98655.94;4970268;28;20074;-69
2021/12/05 03:36:17;;;;;;;65.53;23.02;;;;;;;-1.15;66.24;98652.81;4987513;28;20059;-68
2021/12/05 03:38:43;;;;;;;61.80;21.20;;;;;;;-1.20;66.45;98660.72;4985720;28;20059;-68
2021/12/05 03:41:13;;;;;;;62.90;23.73;;;;;;;-1.12;66.43;98667.63;4955950;28;20157;-68
2021/12/05 03:43:43;;;;;;;67.82;22.38;;;;;;;-1.24;66.61;98654.16;4955710;28;20157;-69
2021/12/05 03:46:10;;;;;;;63.35;21.80;;;;;;;-1.15;66.54;98668.94;4971206;28;20058;-69
2021/12/05 03:48:39;;;;;;;53.45;20.55;;;;;;;-1.13;66.56;98665.19;4971953;28;20432;-70
2021/12/05 03:51:08;;;;;;;59.78;20.42;;;;;;;-1.22;66.47;98652.06;4972253;28;20062;-69
2021/12/05 03:53:35;;;;;;;52.45;20.00;;;;;;;-1.02;66.39;98675.16;4954842;28;20419;-69
2021/12/05 03:56:04;;;;;;;53.58;19.48;;;;;;;-1.16;66.67;98672.66;4957805;28;20062;-69
2021/12/05 03:58:31;;;;;;;54.40;18.88;;;;;;;-1.13;66.68;98675.94;4963485;28;20054;-68
2021/12/05 04:01:01;;;;;;;57.50;19.50;;;;;;;-1.00;66.24;98681.94;4954130;28;20153;-68
2021/12/05 04:03:28;;;;;;;51.80;19.60;;;;;;;-1.04;66.46;98686.13;4968262;28;20671;-69
2021/12/05 04:05:56;;;;;;;57.42;20.77;;;;;;;-1.07;66.78;98685.75;4970075;28;20137;-69
2021/12/05 04:08:25;;;;;;;47.47;18.48;;;;;;;-1.12;66.74;98683.72;4987828;28;20129;-69
2021/12/05 04:10:56;;;;;;;58.38;19.52;;;;;;;-1.10;67.04;98691.56;4987486;28;20126;-69
2021/12/05 04:13:22;;;;;;;55.67;18.73;;;;;;;-1.15;67.25;98687.72;4986253;28;20095;-68
2021/12/05 04:15:50;;;;;;;58.15;19.35;;;;;;;-1.11;67.13;98687.25;4954821;28;20567;-69
2021/12/05 04:18:18;;;;;;;49.63;18.33;;;;;;;-1.02;67.04;98685.88;4971621;28;20050;-69
2021/12/05 04:20:46;;;;;;;51.47;18.67;;;;;;;-0.88;66.59;98684.66;4954326;28;20567;-68
2021/12/05 04:23:12;;;;;;;44.08;17.95;;;;;;;-1.04;66.60;98675.38;4967993;28;20043;-69
2021/12/05 04:25:38;;;;;;;52.72;19.25;;;;;;;-0.93;66.70;98697.16;4986335;28;20105;-69
2021/12/05 04:28:06;;;;;;;53.35;18.95;;;;;;;-1.08;67.23;98686.78;4971435;28;20059;-69
2021/12/05 04:30:32;;;;;;;48.30;17.42;;;;;;;-1.12;67.20;98686.41;4965011;28;20137;-69
2021/12/05 04:32:58;;;;;;;50.70;18.45;;;;;;;-1.03;67.05;98681.56;4968901;28;20060;-69
2021/12/05 04:35:26;;;;;;;52.47;18.30;;;;;;;-0.99;67.18;98701.56;4971514;28;20062;-69
2021/12/05 04:37:52;;;;;;;47.80;16.98;;;;;;;-1.05;67.32;98699.75;4954035;28;20074;-69
2021/12/05 04:40:19;;;;;;;43.55;17.20;;;;;;;-1.09;67.66;98707.47;4954272;28;20057;-69
2021/12/05 04:42:47;;;;;;;53.80;19.42;;;;;;;-1.21;67.70;98698.50;4970082;28;20078;-68
2021/12/05 04:45:15;;;;;;;;;;;;;;;-1.21;68.00;98710.06;4966022;28;20067;-68
2021/12/05 04:47:44;;;;;;;;;;;;;;;-1.24;68.27;98712.38;4975674;28;19926;-70
2021/12/05 04:50:11;;;;;;;44.45;16.38;;;;;;;-1.37;68.53;98705.28;4957124;28;19980;-69
2021/12/05 04:52:39;;;;;;;40.25;16.48;;;;;;;-1.27;68.29;98710.13;4975655;28;20066;-68
2021/12/05 04:55:08;;;;;;;46.83;17.33;;;;;;;-1.37;68.03;98697.25;4991646;28;20055;-69
2021/12/05 04:57:34;;;;;;;46.75;16.88;;;;;;;-1.35;68.47;98695.97;4974842;28;20130;-69
2021/12/05 05:00:01;;;;;;;49.63;16.83;;;;;;;-1.22;68.22;98708.41;4973514;28;20082;-68
2021/12/05 05:02:27;;;;;;;48.45;17.33;;;;;;;-1.22;68.24;98712.97;4976074;28;20062;-69
2021/12/05 05:04:53;;;;;;;38.53;17.13;;;;;;;-1.24;68.28;98713.19;4973761;28;20050;-69
2021/12/05 05:07:25;;;;;;;50.63;16.33;;;;;;;-1.17;67.86;98721.16;4974440;28;20562;-68
2021/12/05 05:09:55;;;;;;;48.90;18.05;;;;;;;-1.21;68.16;98728.03;4975060;28;20054;-68
2021/12/05 05:12:21;;;;;;;44.30;16.37;;;;;;;-1.17;68.20;98727.34;4976205;28;20055;-69
2021/12/05 05:14:47;;;;;;;40.67;16.02;;;;;;;-1.15;68.09;98716.38;4974351;28;20042;-69
2021/12/05 05:17:13;;;;;;;48.60;17.67;;;;;;;-1.21;68.24;98718.09;4955201;28;20085;-69
2021/12/05 05:19:51;;;;;;;43.08;16.55;;;;;;;-1.20;68.26;98721.63;4973263;28;20047;-70
2021/12/05 05:50:54;;;;;;;40.93;15.73;;;;;;;-1.08;68.11;98759.25;4975188;28;20121;-68
2021/12/05 05:53:21;;;;;;;44.20;16.40;;;;;;;-1.02;67.96;98763.69;4970913;28;20113;-67
2021/12/05 05:55:48;;;;;;;44.50;16.20;;;;;;;-1.08;67.76;98741.28;4970688;28;20404;-67
2021/12/05 05:58:21;;;;;;;;;;;;;;;-0.95;67.84;98760.94;4958797;28;20146;-68
2021/12/05 06:01:14;;;;;;;42.70;15.20;;;;;;;-0.95;67.70;98767.13;4957926;28;19926;-66
2021/12/05 06:03:37;;;;;;;45.42;17.33;;;;;;;-0.94;67.70;98767.94;4953814;28;20650;-68
2021/12/05 06:06:07;;;;;;;54.30;18.95;;;;;;;-0.98;67.82;98764.91;4973037;28;20061;-67
2021/12/05 06:08:36;;;;;;;42.80;16.35;;;;;;;-1.01;68.01;98760.00;4973084;28;20062;-66
2021/12/05 06:11:04;;;;;;;44.83;17.33;;;;;;;-0.92;67.85;98764.00;4971737;28;20491;-67
2021/12/05 06:13:35;;;;;;;46.38;17.42;;;;;;;-0.90;67.69;98766.47;4972093;28;20083;-67
2021/12/05 06:16:02;;;;;;;53.93;17.33;;;;;;;-1.01;67.83;98749.28;4975111;28;20054;-69
2021/12/05 06:18:28;;;;;;;46.60;16.48;;;;;;;-0.90;67.77;98758.44;4974881;28;20129;-68
2021/12/05 06:20:55;;;;;;;38.83;16.58;;;;;;;-0.96;67.97;98772.72;4973929;28;20493;-68
2021/12/05 06:23:21;;;;;;;44.45;17.20;;;;;;;-0.97;68.08;98757.66;4973517;28;20081;-68
2021/12/05 06:25:50;;;;;;;41.97;17.48;;;;;;;-0.91;67.83;98754.91;4974451;28;20062;-69
2021/12/05 06:28:22;;;;;;;48.92;17.65;;;;;;;-0.92;67.94;98773.94;4954815;28;20062;-69
2021/12/05 06:42:01;;;;;;;49.53;16.60;;;;;;;-0.78;67.36;98788.00;4970348;28;20182;-66
2021/12/05 06:47:14;;;;;;;37.38;16.05;;;;;;;-0.91;67.70;98792.47;4973292;28;20504;-67
2021/12/05 06:49:42;;;;;;;43.63;17.15;;;;;;;-0.88;67.78;98796.59;4954671;28;20046;-67
2021/12/05 06:52:09;;;;;;;40.47;17.25;;;;;;;-0.88;67.96;98799.28;4971888;28;20431;-67
2021/12/05 06:54:36;;;;;;;50.13;16.30;;;;;;;-0.92;68.06;98801.56;4971866;28;20055;-68
2021/12/05 06:57:02;;;;;;;42.67;17.45;;;;;;;-0.87;68.04;98801.72;4972383;28;20528;-68
2021/12/05 06:59:29;;;;;;;41.83;17.40;;;;;;;-0.91;68.10;98791.69;4969318;28;20053;-67
2021/12/05 07:01:56;;;;;;;42.22;17.55;;;;;;;-0.95;68.30;98803.88;4955178;28;20058;-68
2021/12/05 07:06:59;;;;;;;53.85;18.20;;;;;;;-0.83;67.97;98815.53;4972189;28;20145;-68
2021/12/05 07:09:26;;;;;;;42.60;16.55;;;;;;;-0.96;68.23;98807.59;4972836;28;20059;-68
2021/12/05 07:12:25;;;;;;;48.90;17.33;;;;;;;-1.01;68.38;98814.47;4966617;28;20053;-68
2021/12/05 07:25:45;;;;;;;46.03;16.65;;;;;;;-1.08;68.64;98831.69;4968461;28;20420;-69
2021/12/05 07:42:15;;;;;;;41.45;17.42;;;;;;;-0.95;68.75;98828.88;4973602;28;20054;-69
2021/12/05 07:44:41;;;;;;;37.47;16.35;;;;;;;-1.07;68.77;98830.66;4975896;28;20532;-68
2021/12/05 07:47:08;;;;;;;37.95;15.20;;;;;;;-1.05;69.06;98847.34;4973412;28;20050;-71
2021/12/05 07:49:34;;;;;;;38.25;16.30;;;;;;;-0.99;68.88;98841.09;4971675;28;20484;-69
2021/12/05 07:52:01;;;;;;;37.70;16.30;;;;;;;-1.18;69.22;98814.22;4955936;28;20132;-68
2021/12/05 07:54:37;;;;;;;45.05;15.52;;;;;;;-1.10;69.04;98817.69;4971654;28;20050;-71
2021/12/05 07:57:18;;;;;;;38.63;15.27;;;;;;;-1.02;68.98;98834.31;4987135;28;20050;-70
2021/12/05 08:16:25;;;;;;;39.10;16.00;;;;;;;-0.76;69.07;98828.88;4955457;28;20085;-70
2021/12/05 08:18:55;;;;;;;39.45;16.02;;;;;;;-0.75;69.36;98846.63;4971273;28;20105;-69
2021/12/05 08:21:24;;;;;;;44.50;15.07;;;;;;;-0.73;69.28;98839.16;4972185;28;20175;-69
2021/12/05 08:23:51;;;;;;;45.10;16.48;;;;;;;-0.65;69.28;98828.13;4955441;28;20449;-69
2021/12/05 08:26:21;;;;;;;39.72;15.73;;;;;;;-0.55;68.72;98841.00;4987192;28;20051;-69
2021/12/05 08:31:34;;;;;;;33.57;14.63;;;;;;;-0.49;68.49;98840.09;4952217;29;20575;-69
2021/12/05 09:21:20;;;;;;;36.97;15.88;;;;;;;-0.73;68.91;98815.00;4972646;28;20405;-69
2021/12/05 09:29:25;;;;;;;40.38;17.48;;;;;;;-0.57;69.49;98832.38;4936746;28;20074;-69
2021/12/05 10:08:03;;;;;;;42.00;16.55;;;;;;;-0.21;68.35;98860.22;4972730;28;20058;-69
2021/12/05 10:26:31;;;;;;;;;;;;;;;-0.31;69.63;98859.94;4974986;28;20538;-68
2021/12/05 10:37:37;;;;;;;36.45;14.35;;;;;;;-0.19;68.84;98842.00;4973708;28;20061;-69
2021/12/05 10:40:07;;;;;;;35.25;14.70;;;;;;;-0.01;68.69;98854.56;4971348;28;20055;-69
2021/12/05 10:42:44;;;;;;;37.95;15.75;;;;;;;-0.08;68.45;98844.97;4968583;28;20125;-71
2021/12/05 10:45:29;;;;;;;39.65;15.98;;;;;;;-0.08;68.89;98858.41;4967962;28;20046;-71
2021/12/05 10:47:57;;;;;;;37.67;15.52;;;;;;;-0.21;69.35;98875.53;4973498;28;20426;-70
2021/12/05 10:50:36;;;;;;;38.28;15.73;;;;;;;-0.14;69.31;98862.81;4955094;28;20058;-72
2021/12/05 10:53:32;;;;;;;33.95;13.77;;;;;;;-0.18;69.35;98862.44;4973464;28;20095;-73
2021/12/05 10:56:18;;;;;;;33.33;14.77;;;;;;;-0.08;69.18;98872.69;4974006;28;20058;-73
2021/12/05 10:58:56;;;;;;;37.55;14.80;;;;;;;-0.13;69.34;98856.38;4969490;28;20054;-72
2021/12/05 11:01:35;;;;;;;39.67;14.95;;;;;;;-0.18;69.22;98845.50;4973286;28;20062;-71
2021/12/05 11:04:04;;;;;;;40.72;15.40;;;;;;;-0.12;69.34;98867.97;4970579;28;20058;-72
2021/12/05 11:06:44;;;;;;;37.85;15.45;;;;;;;-0.04;69.43;98871.16;4973345;28;20431;-74
2021/12/05 11:09:16;;;;;;;43.67;15.48;;;;;;;-0.04;69.53;98873.00;4968615;28;20546;-71
2021/12/05 11:11:52;;;;;;;38.35;15.75;;;;;;;-0.02;69.46;98873.59;4973851;28;20051;-71
2021/12/05 11:14:21;;;;;;;38.63;15.60;;;;;;;-0.04;69.40;98859.56;4972349;28;20076;-72
2021/12/05 11:16:59;;;;;;;42.53;16.00;;;;;;;0.06;69.35;98875.16;4956878;28;20142;-70
2021/12/05 11:19:31;;;;;;;38.30;14.70;;;;;;;0.13;69.10;98876.69;4972398;28;20141;-71
2021/12/05 11:22:02;;;;;;;41.38;16.23;;;;;;;-0.01;68.98;98862.63;4972201;28;20054;-71
2021/12/05 11:24:31;;;;;;;43.15;16.30;;;;;;;0.06;69.22;98880.53;4961867;28;20504;-72
2021/12/05 11:27:14;;;;;;;35.55;14.27;;;;;;;0.14;69.27;98881.03;4971609;28;20059;-70
2021/12/05 11:30:00;;;;;;;47.38;16.67;;;;;;;0.19;68.80;98885.72;4970115;28;20066;-69
2021/12/05 11:32:37;;;;;;;38.03;15.55;;;;;;;0.17;68.66;98884.34;4957496;28;20053;-69
2021/12/05 11:35:19;;;;;;;40.38;15.55;;;;;;;0.25;68.47;98894.75;4971079;28;20141;-69
2021/12/05 11:38:03;;;;;;;34.45;15.70;;;;;;;0.12;68.86;98895.75;4970682;28;20062;-68
2021/12/05 11:40:41;;;;;;;44.75;18.45;;;;;;;0.03;68.83;98872.94;4970639;28;20051;-68
2021/12/05 11:43:13;;;;;;;42.75;16.30;;;;;;;0.14;68.93;98899.84;4953003;28;20054;-69
2021/12/05 11:45:55;;;;;;;45.78;17.05;;;;;;;0.13;68.62;98898.22;4969598;28;20054;-69
2021/12/05 11:48:25;;;;;;;43.45;16.95;;;;;;;0.21;68.47;98898.94;4954293;28;20065;-69
2021/12/05 11:50:52;;;;;;;35.67;15.20;;;;;;;0.12;68.68;98901.13;4950056;28;20058;-69
2021/12/05 11:59:12;;;;;;;41.85;17.73;;;;;;;0.08;68.60;98897.25;5034360;27;1379515;-68
2021/12/05 12:01:44;;;;;;;42.65;17.35;;;;;;;0.10;68.36;98895.19;5065798;28;20059;-68
2021/12/05 12:04:13;;;;;;;40.10;16.35;;;;;;;0.07;68.43;98895.59;5065271;28;20140;-69
2021/12/05 12:06:41;;;;;;;56.42;18.02;;;;;;;0.12;68.17;98904.63;5066477;28;20267;-69
2021/12/05 12:16:06;;;;;;;49.28;18.08;;;;;;;0.02;68.23;98887.41;5051150;28;20051;-68
2021/12/05 12:18:36;;;;;;;52.78;18.45;;;;;;;0.11;68.21;98903.00;5048244;28;20044;-69
2021/12/05 12:25:11;;;;;;;47.75;17.50;;;;;;;0.10;68.51;98898.66;4959437;28;20064;-69
2021/12/05 12:28:03;;;;;;;49.65;19.35;;;;;;;0.04;68.62;98894.22;4978776;28;20051;-71
2021/12/05 12:30:37;;;;;;;59.65;20.38;;;;;;;0.06;68.48;98892.13;5014150;28;20079;-70
2021/12/05 12:33:08;;;;;;;50.90;18.98;;;;;;;0.13;68.25;98900.09;5065718;28;20072;-69
2021/12/05 12:35:34;;;;;;;45.83;18.77;;;;;;;0.22;68.46;98922.91;5060475;28;20270;-67
2021/12/05 12:38:07;;;;;;;52.22;19.50;;;;;;;0.15;68.41;98922.19;5065118;28;20044;-68
2021/12/05 12:40:42;;;;;;;45.30;18.15;;;;;;;0.20;68.30;98911.56;5063346;28;20589;-68
2021/12/05 12:43:10;;;;;;;47.97;18.23;;;;;;;0.11;68.25;98904.88;5057360;28;20442;-69
2021/12/05 12:45:38;;;;;;;49.72;17.75;;;;;;;0.18;68.48;98907.47;5067385;28;20049;-68
2021/12/05 12:48:15;;;;;;;49.35;18.05;;;;;;;0.26;68.32;98917.91;5028837;28;20402;-70
2021/12/05 12:50:51;;;;;;;51.00;19.35;;;;;;;0.18;68.36;98918.22;5046888;28;20041;-69
2021/12/05 12:53:22;;;;;;;46.70;19.50;;;;;;;0.20;68.62;98916.13;5063842;28;20049;-69
2021/12/05 12:56:21;;;;;;;56.83;21.65;;;;;;;0.17;68.58;98922.78;5029390;28;20532;-68
2021/12/05 12:58:50;;;;;;;58.92;20.70;;;;;;;0.21;68.44;98921.25;5045958;28;20048;-68
2021/12/05 13:02:01;;;;;;;52.47;20.13;;;;;;;0.23;68.23;98927.22;5060295;28;20099;-68
2021/12/05 13:04:37;;;;;;;48.28;19.10;;;;;;;0.06;68.82;98926.22;5034750;28;20049;-70
2021/12/05 13:09:57;;;;;;;46.45;18.85;;;;;;;0.11;68.81;98924.50;5047779;28;20090;-68
2021/12/05 13:10:17;;;;;;;45.30;18.83;;;;;;;0.02;68.63;98917.81;5055635;28;20409;-69
2021/12/05 13:12:51;;;;;;;53.45;17.63;;;;;;;0.07;68.80;98941.31;5051313;28;20045;-67
2021/12/05 13:15:28;;;;;;;47.67;19.15;;;;;;;0.04;68.71;98942.59;5053608;28;20048;-69
2021/12/05 13:18:00;;;;;;;49.97;18.42;;;;;;;-0.04;68.92;98943.72;5049284;28;20513;-66
2021/12/05 13:20:44;;;;;;;48.13;18.73;;;;;;;-0.06;68.96;98942.31;5038127;28;20044;-67
2021/12/05 13:23:12;;;;;;;42.05;18.63;;;;;;;-0.12;69.09;98940.53;5035222;28;20050;-67
2021/12/05 13:26:03;;;;;;;52.50;19.85;;;;;;;-0.16;69.41;98946.38;5042562;28;20038;-68
2021/12/05 13:28:34;;;;;;;46.17;18.98;;;;;;;-0.19;69.22;98946.78;5040621;28;20615;-68
2021/12/05 13:31:21;;;;;;;49.55;17.95;;;;;;;-0.23;69.21;98948.28;5049661;28;20134;-68
2021/12/05 13:33:47;;;;;;;45.40;18.52;;;;;;;-0.25;69.47;98947.69;5051701;28;20041;-68
2021/12/05 13:36:33;;;;;;;51.10;19.35;;;;;;;-0.21;69.55;98959.63;5052625;28;20060;-68
2021/12/05 13:39:00;;;;;;;47.67;18.02;;;;;;;-0.26;69.43;98946.06;5017428;28;20126;-68
2021/12/05 13:41:29;;;;;;;46.33;18.90;;;;;;;-0.25;69.64;98957.63;5041991;28;20183;-68
2021/12/05 13:43:57;;;;;;;45.63;18.13;;;;;;;-0.30;69.51;98958.31;5053548;28;20071;-68
2021/12/05 13:46:33;;;;;;;;;;;;;;;-0.29;69.60;98962.63;5044811;28;20052;-67
2021/12/05 13:49:00;;;;;;;42.45;17.65;;;;;;;-0.29;69.44;98955.38;5029294;28;19929;-68
2021/12/05 13:51:32;;;;;;;46.75;18.63;;;;;;;-0.22;69.42;98955.31;5052853;28;20118;-67
2021/12/05 13:54:02;;;;;;;50.05;19.55;;;;;;;-0.19;69.41;98960.22;5053237;28;20047;-67
2021/12/05 13:56:28;;;;;;;53.63;20.25;;;;;;;-0.20;69.37;98957.78;5034146;28;20127;-68
2021/12/05 13:59:05;;;;;;;61.70;20.77;;;;;;;-0.16;69.26;98962.50;5046913;28;20053;-68
2021/12/05 14:01:33;;;;;;;49.95;19.48;;;;;;;-0.26;69.38;98958.66;5044137;28;20043;-69
2021/12/05 14:04:24;;;;;;;53.13;20.13;;;;;;;-0.25;69.49;98974.56;5051355;28;20057;-68
2021/12/05 14:06:54;;;;;;;54.30;19.40;;;;;;;-0.29;69.41;98982.25;5044790;28;20048;-69
2021/12/05 14:09:33;;;;;;;53.30;19.90;;;;;;;-0.30;69.42;98977.13;5015503;28;20045;-70
2021/12/05 14:12:07;;;;;;;52.22;20.15;;;;;;;-0.26;69.56;98978.31;5048041;28;20041;-67
2021/12/05 14:14:37;;;;;;;49.85;20.90;;;;;;;-0.37;69.62;98968.28;5045824;28;20128;-68
2021/12/05 14:17:10;;;;;;;61.35;22.77;;;;;;;-0.21;69.32;98983.00;5034458;28;20041;-68
2021/12/05 14:19:38;;;;;;;75.63;22.02;;;;;;;-0.19;69.35;98987.09;5051484;28;20075;-68
2021/12/05 14:22:10;;;;;;;54.10;22.48;;;;;;;-0.24;69.41;98978.91;5047731;28;20382;-68
2021/12/05 14:24:40;;;;;;;53.25;20.70;;;;;;;-0.27;69.24;98984.72;5049920;28;20497;-68
2021/12/05 14:27:11;;;;;;;63.33;19.25;;;;;;;-0.57;69.75;98958.59;5041657;28;20211;-67
2021/12/05 14:29:43;;;;;;;44.65;18.50;;;;;;;-0.32;69.40;98987.25;5032600;28;20099;-67
2021/12/05 14:32:12;;;;;;;47.53;19.60;;;;;;;-0.50;69.65;98980.00;5049231;28;20053;-68
2021/12/05 14:34:39;;;;;;;51.60;19.50;;;;;;;-0.33;69.62;98985.59;5050967;28;20049;-68
2021/12/05 14:37:09;;;;;;;56.33;19.95;;;;;;;-0.27;69.24;98987.41;5028593;28;20053;-68
2021/12/05 14:39:38;;;;;;;51.25;19.08;;;;;;;-0.18;68.91;98987.94;5047832;28;20103;-66
2021/12/05 14:42:08;;;;;;;48.13;19.38;;;;;;;-0.17;68.66;98995.75;5049991;28;20048;-67
2021/12/05 14:44:39;;;;;;;50.72;19.23;;;;;;;-0.28;68.76;98983.09;5052163;28;20049;-67
2021/12/05 14:47:09;;;;;;;49.90;18.80;;;;;;;-0.31;68.90;98988.91;5050230;28;20045;-67
2021/12/05 14:49:42;;;;;;;52.13;20.15;;;;;;;-0.32;69.01;99003.38;5051905;28;20413;-67
2021/12/05 14:52:13;;;;;;;50.65;19.10;;;;;;;-0.28;68.86;98991.16;5033198;28;20055;-69
2021/12/05 14:54:41;;;;;;;52.00;19.15;;;;;;;-0.32;68.64;99012.25;5051596;28;20059;-69
2021/12/05 14:57:09;;;;;;;44.25;18.33;;;;;;;-0.32;68.63;99014.09;5051180;28;20045;-68
2021/12/05 14:59:39;;;;;;;49.60;19.02;;;;;;;-0.40;68.83;99004.47;5052196;28;20103;-68
2021/12/05 15:02:18;;;;;;;45.60;18.45;;;;;;;-0.49;69.05;98995.88;5031365;28;20041;-68
2021/12/05 15:04:47;;;;;;;45.08;17.42;;;;;;;-0.52;69.04;99023.19;5052077;28;20076;-68
2021/12/05 15:07:17;;;;;;;54.45;18.75;;;;;;;-0.45;68.76;99015.91;5050326;28;20045;-67
2021/12/05 15:09:45;;;;;;;49.97;17.95;;;;;;;-0.45;68.75;99021.28;5049857;28;20036;-68
2021/12/05 15:12:16;;;;;;;49.17;19.70;;;;;;;-0.39;68.53;99013.38;5017923;28;20056;-68
2021/12/05 15:14:45;;;;;;;47.08;17.20;;;;;;;-0.42;68.78;99017.31;5032068;28;20136;-69
2021/12/05 15:17:14;;;;;;;47.38;18.73;;;;;;;-0.43;68.77;99021.88;5035889;28;20520;-68
2021/12/05 15:19:43;;;;;;;43.13;17.05;;;;;;;-0.35;68.47;99019.94;5023424;28;20118;-68
2021/12/05 15:22:12;;;;;;;44.58;17.65;;;;;;;-0.32;68.58;99014.94;5015919;28;20048;-68
2021/12/05 15:24:53;;;;;;;44.80;19.35;;;;;;;-0.45;68.48;99017.75;5051720;28;20037;-69
2021/12/05 15:27:37;;;;;;;38.83;16.63;;;;;;;-0.89;68.76;98959.50;5031313;28;20567;-68
2021/12/05 15:30:31;;;;;;;;;;;;;;;;;;;;;
2021/12/05 15:33:11;;;;;;;46.88;17.23;;;;;;;-0.44;68.56;99030.16;5013621;28;20046;-67
2021/12/05 15:35:43;;;;;;;47.60;17.60;;;;;;;-0.49;68.82;99030.81;5042602;28;20043;-68
2021/12/05 15:38:12;;;;;;;42.10;17.85;;;;;;;-0.45;68.65;99023.97;5050215;28;20045;-69
2021/12/05 15:40:48;;;;;;;44.53;18.73;;;;;;;-0.57;68.82;99023.03;5051447;28;20494;-68
2021/12/05 15:43:23;;;;;;;41.35;16.52;;;;;;;-0.50;68.83;99031.03;5050984;28;20460;-68
2021/12/05 15:45:54;;;;;;;39.40;16.85;;;;;;;-0.52;68.92;99033.13;5030875;28;20084;-68
2021/12/05 15:48:22;;;;;;;42.10;16.60;;;;;;;-0.47;68.74;99031.44;5029638;28;20469;-68
2021/12/05 15:50:51;;;;;;;;;;;;;;;-0.58;69.28;99027.56;5049992;28;20055;-68
2021/12/05 15:53:18;;;;;;;44.20;15.35;;;;;;;-0.51;69.02;99035.56;5051198;28;20385;-68
2021/12/05 15:55:52;;;;;;;39.45;15.80;;;;;;;-0.61;68.68;99005.72;5031419;28;20497;-69
2021/12/05 15:58:24;;;;;;;39.15;15.73;;;;;;;-0.57;68.80;99036.47;5033001;28;20056;-68
2021/12/05 16:00:54;;;;;;;35.63;15.27;;;;;;;-0.58;68.97;99046.38;5045861;28;20663;-69
2021/12/05 16:03:25;;;;;;;47.67;16.58;;;;;;;-0.66;68.86;99041.31;5040475;28;20048;-69
2021/12/05 16:05:57;;;;;;;34.33;15.23;;;;;;;-0.62;69.16;99047.06;5043890;28;20041;-68
2021/12/05 16:08:28;;;;;;;38.33;15.23;;;;;;;-0.60;69.02;99044.97;5030791;28;20076;-69
2021/12/05 16:11:00;;;;;;;36.10;14.88;;;;;;;-0.68;68.95;99031.81;5047967;28;20049;-69
2021/12/05 16:13:33;;;;;;;35.33;14.77;;;;;;;-0.72;69.22;99045.69;5031744;28;20064;-69
2021/12/05 16:16:08;;;;;;;34.78;15.00;;;;;;;-0.71;69.31;99054.53;5036369;28;20564;-67
2021/12/05 16:18:41;;;;;;;34.13;14.60;;;;;;;-0.69;69.26;99059.69;5049587;28;20056;-67
2021/12/05 16:21:15;;;;;;;40.72;14.13;;;;;;;-0.70;69.18;99047.31;5043651;28;20183;-68
2021/12/05 16:23:45;;;;;;;33.50;14.07;;;;;;;-0.74;69.19;99055.81;5049362;28;20116;-68
2021/12/05 16:26:15;;;;;;;36.17;14.45;;;;;;;-0.75;69.22;99062.22;5050060;28;20194;-68
2021/12/05 16:28:44;;;;;;;34.92;14.27;;;;;;;-0.74;68.91;99066.56;5051099;28;20053;-69
2021/12/05 16:31:14;;;;;;;38.92;15.05;;;;;;;-0.74;68.88;99076.47;5032883;28;20580;-68
2021/12/05 16:34:27;;;;;;;35.92;14.02;;;;;;;-1.11;69.01;99017.28;5082449;23;20057;-69
2021/12/05 16:36:54;;;;;;;40.50;14.00;;;;;;;-0.72;69.23;99074.38;5087079;28;20567;-69
2021/12/05 16:39:23;;;;;;;35.97;15.38;;;;;;;-0.73;69.11;99083.47;5061199;28;20056;-69
2021/12/05 16:41:52;;;;;;;32.13;13.50;;;;;;;-0.78;69.29;99081.47;5081279;28;20138;-69
2021/12/05 16:44:23;;;;;;;36.85;14.00;;;;;;;-0.81;69.36;99068.47;5073747;28;20043;-69
2021/12/05 16:47:13;;;;;;;41.43;14.60;;;;;;;-0.95;69.16;99058.84;5093901;28;20055;-69
2021/12/05 16:49:44;;;;;;;42.05;14.05;;;;;;;-0.81;69.30;99081.88;5073071;28;20040;-68
2021/12/05 16:52:19;;;;;;;35.72;15.07;;;;;;;-0.94;69.45;99077.44;5078212;28;20054;-67
2021/12/05 16:54:51;;;;;;;35.65;14.98;;;;;;;-0.88;69.41;99086.50;5087666;28;20403;-67
2021/12/05 16:57:23;;;;;;;38.70;14.88;;;;;;;-0.84;69.45;99093.06;5093689;28;20130;-68
2021/12/05 16:59:52;;;;;;;40.83;15.32;;;;;;;-0.80;69.49;99085.41;5092611;28;20044;-68
2021/12/05 17:02:20;;;;;;;41.45;16.55;;;;;;;-0.80;69.44;99091.56;5076819;28;20048;-69
2021/12/05 17:05:03;;;;;;;44.78;14.63;;;;;;;-0.84;69.75;99090.38;5073387;28;20064;-68
2021/12/05 17:07:37;;;;;;;43.78;15.20;;;;;;;-0.77;69.48;99101.06;5064821;28;20540;-69
2021/12/05 17:10:06;;;;;;;43.53;15.98;;;;;;;-0.87;69.73;99114.97;5085318;28;20047;-69
2021/12/05 17:12:35;;;;;;;44.78;16.05;;;;;;;-0.79;69.88;99103.97;5074078;28;20043;-67
2021/12/05 17:15:16;;;;;;;46.00;16.20;;;;;;;-0.85;69.91;99091.41;5074463;28;20049;-68
2021/12/05 17:17:44;;;;;;;47.13;16.60;;;;;;;-0.75;69.78;99109.72;5080560;28;20044;-68
2021/12/05 17:20:28;;;;;;;;;;;;;;;-0.73;69.76;99107.63;5072423;28;20148;-68
2021/12/05 17:23:07;;;;;;;41.65;16.63;;;;;;;-0.84;69.62;99098.44;5073804;28;19929;-68
2021/12/05 17:25:39;;;;;;;53.33;18.05;;;;;;;-0.91;70.05;99113.78;5055630;28;20508;-68
2021/12/05 17:28:30;;;;;;;47.25;16.17;;;;;;;-0.88;69.79;99118.69;5088917;28;20044;-69
2021/12/05 17:31:07;;;;;;;46.05;17.73;;;;;;;-0.83;70.12;99123.44;5060066;28;20443;-68